CheckWX is a tool to help pilots better visualize weather data.  It is not intended as a substitute for an official pre-flight weather briefing.

02:58:17 UTC

06D METAR
Rolla Municipal Airport
Rolla, North Dakota, USA
Current

23 mins ago

K06D 240235Z AUTO 01007KT 10SM OVC065 02/02 A3009 RMK AO2
Observed
Mar-24 @ 02:35 UTC
Wind
  • 010° at 7 KTS
Visibility
10 SM
Flight Rules
VFR
Cloud Levels
  • Overcast at 6,500' AGL
Temperature
C / 36°F
Dewpoint
C / 36°F
Humidity
100%
Altimeter
30.09" Hg
Pressure
1018.92 hPa
Previous

43 mins ago

K06D 240215Z AUTO 36008KT 10SM OVC065 02/02 A3008 RMK AO2
Observed
Mar-24 @ 02:15 UTC
Wind
  • 360° at 8 KTS
Visibility
10 SM
Flight Rules
VFR
Cloud Levels
  • Overcast at 6,500' AGL
Temperature
C / 36°F
Dewpoint
C / 36°F
Humidity
100%
Altimeter
30.08" Hg
Pressure
1018.62 hPa
Previous

1 hour ago

K06D 240155Z AUTO 35007KT 10SM BKN065 02/02 A3007 RMK AO2
Observed
Mar-24 @ 01:55 UTC
Wind
  • 350° at 7 KTS
Visibility
10 SM
Flight Rules
VFR
Cloud Levels
  • Broken at 6,500' AGL
Temperature
C / 36°F
Dewpoint
C / 36°F
Humidity
100%
Altimeter
30.07" Hg
Pressure
1018.32 hPa